Pope, Illinois
Current Conditions -  °F | °C
As of 9:15 AM on Wednesday 22 Oct 2014 (Local Time) from KSLO Reporting Station
Clear Clear  
Wind Chill: 47°   Ceiling: Unl
Heat Index: 49°   Visibility: 10mi
Dew Point: 44°   Wind: 6mph
Humidity: 82%   Direction: 100°E
Pressure: 30.33"   Gusts: NA
Location:  38.7613°N, 89.0868°W
Report Text: KSLO 221415Z AUTO 10005KT 10SM CLR 10/07 A3033 RMK AO2 T00960066
Loading
Personal Weather Stations






























Interactive Weather Map
Tropical Storm Tracking
New forecast layout! Learn more

10-Day Weather Forecast

Advertisements
Track Severe Weather on mobile